Startpagina
METAR-TAF:

METAR-TAF

Vliegvelden :

Bordj Badji Mokhtar, Algerije

breedte: 21-22-30N, lengte: 000-55-26E, hoogte: 396 m

Actueel weer

Dit bericht is 3 uur en het 2 minuten geleden gemaakt, om 18:00 UTC
Wind 10 kt uit het westen
Temperatuur 41°C
Druk 1008 hPa
Zicht 10 km of meer
Weinig wolken op 4600 ft

METAR: DATM 241800Z 28010KT 9999 FEW046 41/// Q1008

Tijdstip: 22:02 (21:02 UTC)

Verwachting

Dit bericht is 4 uur en het 2 minuten geleden gemaakt, om 17:00 UTC
Verwachting geldig van 24 om 18 UTC tot 25 om 03 UTC
Wind 12 kt uit het westnoordwesten
Zicht 10 km of meer
geen wolken onder 1500 m en geen cumulonimbus

TAF: DATM 241700Z 2418/2503 30012KT CAVOK

Waarnemingen en weersverwachtingen van meer dan 4000 vliegvelden (METAR en TAF).

De beschikbare stations zijn de gele en rode punten op de kaart.

Ga met uw muis naar het station om de naam te zien.

Klik dan om waarnemingen en weersverwachtingen te zien.

kaart wijzigen: klik op de groene knoppen met een zwart kruis om in te zoomen, op de groene knop met een streepje om uit te zoomen of op de groene pijlen voor aangrenzende kaarten.


METAR-TAF: